createdAt,value
2023-03-07T00:04:50.761Z,1145.00
2023-03-07T00:21:50.704Z,1126.00
2023-03-07T00:22:50.761Z,1123.00
2023-03-07T00:23:50.825Z,1124.00
2023-03-07T00:24:50.894Z,1122.00
2023-03-07T00:25:50.972Z,1119.00
2023-03-07T00:26:51.037Z,1118.00
2023-03-07T00:27:51.117Z,1119.00
2023-03-07T00:28:51.192Z,1114.00
2023-03-07T00:29:51.253Z,1115.00
2023-03-07T00:30:51.328Z,1112.00
2023-03-07T00:39:51.912Z,1097.00
2023-03-07T01:01:52.984Z,1088.00
2023-03-07T01:02:53.030Z,1084.00
2023-03-07T01:03:53.120Z,1082.00
2023-03-07T01:04:53.156Z,1081.00
2023-03-07T01:05:53.187Z,1080.00
2023-03-07T01:06:53.255Z,1081.00
2023-03-07T01:07:53.302Z,1084.00
2023-03-07T01:08:53.356Z,1082.00
2023-03-07T01:09:53.393Z,1082.00
2023-03-07T01:10:53.456Z,1081.00
2023-03-07T01:11:53.508Z,1078.00
2023-03-07T01:12:53.559Z,1077.00
2023-03-07T01:13:53.609Z,1077.00
2023-03-07T01:14:53.730Z,1075.00
2023-03-07T01:15:53.699Z,1070.00
2023-03-07T01:16:53.807Z,1070.00
2023-03-07T01:17:53.807Z,1071.00
2023-03-07T01:18:53.859Z,1072.00
2023-03-07T01:19:53.915Z,1071.00
2023-03-07T01:20:53.957Z,1070.00
2023-03-07T01:21:54.015Z,1067.00
2023-03-07T01:22:54.069Z,1062.00
2023-03-07T01:23:54.113Z,1062.00
2023-03-07T01:24:54.163Z,1062.00
2023-03-07T01:25:54.215Z,1062.00
2023-03-07T01:26:54.274Z,1053.00
2023-03-07T01:27:54.312Z,1052.00
2023-03-07T01:28:54.363Z,1053.00
2023-03-07T01:29:54.409Z,1053.00
2023-03-07T01:30:54.460Z,1051.00
2023-03-07T01:31:54.548Z,1049.00
2023-03-07T01:32:54.559Z,1046.00
2023-03-07T01:33:54.616Z,1047.00
2023-03-07T03:50:01.326Z,934.00
2023-03-07T03:51:01.374Z,935.00
2023-03-07T03:52:01.448Z,933.00
2023-03-07T04:00:01.840Z,915.00
2023-03-07T04:01:01.895Z,914.00
2023-03-07T04:02:02.016Z,912.00
2023-03-07T04:03:02.076Z,915.00
2023-03-07T04:04:02.028Z,915.00
2023-03-07T04:05:02.064Z,913.00
2023-03-07T04:06:02.107Z,909.00
2023-03-07T04:07:02.137Z,907.00
2023-03-07T04:08:02.178Z,905.00
2023-03-07T04:09:02.213Z,904.00
2023-03-07T04:10:02.254Z,901.00
2023-03-07T04:11:02.283Z,901.00
2023-03-07T04:12:02.322Z,903.00
2023-03-07T04:13:02.352Z,904.00
2023-03-07T04:14:02.382Z,904.00
2023-03-07T04:15:02.408Z,904.00
2023-03-07T04:16:02.494Z,905.00
2023-03-07T04:17:02.456Z,906.00
2023-03-07T04:18:02.478Z,908.00
2023-03-07T04:19:02.502Z,906.00
2023-03-07T04:20:02.516Z,906.00
2023-03-07T04:21:02.549Z,909.00
2023-03-07T04:22:02.559Z,907.00
2023-03-07T04:23:02.568Z,909.00
2023-03-07T04:24:02.587Z,904.00
2023-03-07T04:25:02.615Z,904.00
2023-03-07T04:26:02.668Z,902.00
2023-03-07T04:27:02.663Z,898.00
2023-03-07T04:28:02.668Z,896.00
2023-03-07T04:29:02.678Z,896.00
2023-03-07T04:30:02.699Z,893.00
2023-03-07T04:31:02.699Z,891.00
2023-03-07T04:32:02.771Z,891.00
2023-03-07T04:33:02.722Z,890.00
2023-03-07T04:34:02.751Z,893.00
2023-03-07T04:35:02.743Z,894.00
2023-03-07T04:36:02.779Z,895.00
2023-03-07T04:37:02.764Z,895.00
2023-03-07T04:38:02.774Z,892.00
2023-03-07T04:39:02.764Z,892.00
2023-03-07T04:40:02.780Z,893.00
2023-03-07T04:41:02.785Z,892.00
2023-03-07T04:42:02.812Z,892.00
2023-03-07T04:43:02.821Z,892.00
2023-03-07T04:44:02.828Z,893.00
2023-03-07T04:45:04.724Z,893.00
2023-03-07T04:46:02.886Z,890.00
2023-03-07T04:47:02.857Z,888.00
2023-03-07T04:48:02.856Z,887.00
2023-03-07T04:49:02.865Z,886.00
2023-03-07T04:50:02.884Z,885.00
2023-03-07T04:51:02.879Z,887.00
2023-03-07T04:52:02.888Z,885.00
2023-03-07T04:53:02.894Z,885.00
2023-03-07T04:54:02.916Z,882.00
2023-03-07T04:55:02.917Z,881.00
2023-03-07T04:56:02.924Z,881.00
2023-03-07T04:57:02.941Z,882.00
2023-03-07T04:58:02.956Z,876.00
2023-03-07T04:59:02.973Z,875.00
2023-03-07T05:00:02.983Z,876.00
2023-03-07T05:01:03.045Z,876.00
2023-03-07T05:02:03.003Z,873.00
2023-03-07T05:03:03.020Z,874.00
2023-03-07T05:04:03.058Z,876.00
2023-03-07T05:05:03.048Z,874.00
2023-03-07T05:06:03.063Z,872.00
2023-03-07T05:07:03.082Z,870.00
2023-03-07T05:08:03.089Z,868.00
2023-03-07T05:09:03.102Z,869.00
2023-03-07T05:10:03.111Z,865.00
2023-03-07T05:11:03.124Z,864.00
2023-03-07T05:12:03.138Z,864.00
2023-03-07T05:13:03.152Z,865.00
2023-03-07T05:14:03.168Z,868.00
2023-03-07T05:15:03.179Z,864.00
2023-03-07T05:16:03.320Z,862.00
2023-03-07T05:17:03.209Z,859.00
2023-03-07T05:18:03.207Z,862.00
2023-03-07T05:19:05.941Z,862.00
2023-03-07T05:20:03.228Z,865.00
2023-03-07T05:21:03.233Z,862.00
2023-03-07T05:22:03.228Z,862.00
2023-03-07T05:23:03.224Z,865.00
2023-03-07T05:24:03.223Z,864.00
2023-03-07T05:25:03.225Z,862.00
2023-03-07T05:26:03.227Z,860.00
2023-03-07T05:27:03.304Z,860.00
2023-03-07T05:28:03.220Z,857.00
2023-03-07T05:29:03.224Z,855.00
2023-03-07T05:30:03.231Z,856.00
2023-03-07T05:31:03.244Z,852.00
2023-03-07T05:32:03.214Z,852.00
2023-03-07T05:33:03.223Z,853.00
2023-03-07T05:34:03.231Z,855.00
2023-03-07T05:35:03.242Z,853.00
2023-03-07T05:36:03.287Z,849.00
2023-03-07T05:37:03.233Z,847.00
2023-03-07T05:38:03.249Z,846.00
2023-03-07T05:39:03.241Z,844.00
2023-03-07T05:40:03.240Z,840.00
2023-03-07T05:41:03.244Z,840.00
2023-03-07T05:42:03.250Z,840.00
2023-03-07T05:43:03.391Z,840.00
2023-03-07T05:44:03.264Z,842.00
2023-03-07T05:45:03.257Z,842.00
2023-03-07T05:46:03.300Z,843.00
2023-03-07T05:47:03.253Z,840.00
2023-03-07T05:48:03.249Z,838.00
2023-03-07T05:49:03.261Z,836.00
2023-03-07T05:50:03.272Z,836.00
2023-03-07T05:51:03.250Z,835.00
2023-03-07T05:52:03.257Z,831.00
2023-03-07T05:53:03.260Z,829.00
2023-03-07T05:54:03.259Z,828.00
2023-03-07T05:55:03.262Z,829.00
2023-03-07T05:56:03.263Z,829.00
2023-03-07T05:57:03.264Z,829.00
2023-03-07T05:58:03.270Z,830.00
2023-03-07T05:59:03.260Z,833.00
2023-03-07T06:00:03.284Z,831.00
2023-03-07T06:01:03.269Z,832.00
2023-03-07T06:02:03.268Z,830.00
2023-03-07T06:03:03.347Z,827.00
2023-03-07T06:04:03.343Z,826.00
2023-03-07T06:05:03.267Z,828.00
2023-03-07T06:06:03.270Z,829.00
2023-03-07T06:07:03.268Z,829.00
2023-03-07T06:08:03.283Z,828.00
2023-03-07T06:09:03.276Z,830.00
2023-03-07T06:10:03.278Z,828.00
2023-03-07T06:11:03.273Z,827.00
2023-03-07T06:12:03.273Z,823.00
2023-03-07T06:13:03.267Z,825.00
2023-03-07T06:14:03.263Z,825.00
2023-03-07T06:15:03.256Z,822.00
2023-03-07T06:16:03.329Z,826.00
2023-03-07T06:17:03.238Z,824.00
2023-03-07T06:18:03.238Z,822.00
2023-03-07T06:19:04.025Z,818.00
2023-03-07T06:20:03.225Z,822.00
2023-03-07T06:21:03.227Z,827.00
2023-03-07T06:22:03.216Z,818.00
2023-03-07T06:23:03.210Z,816.00
2023-03-07T06:24:03.211Z,806.00
2023-03-07T06:25:03.223Z,809.00
2023-03-07T06:26:03.207Z,814.00
2023-03-07T06:27:03.196Z,822.00
2023-03-07T06:28:03.199Z,823.00
2023-03-07T06:29:03.205Z,820.00
2023-03-07T06:30:03.185Z,820.00
2023-03-07T06:31:03.235Z,815.00
2023-03-07T06:32:03.220Z,808.00
2023-03-07T06:33:03.180Z,803.00
2023-03-07T06:34:03.175Z,800.00
2023-03-07T06:35:03.240Z,796.00
2023-03-07T06:36:03.323Z,793.00
2023-03-07T06:37:03.383Z,790.00
2023-03-07T06:38:03.436Z,792.00
2023-03-07T06:39:03.493Z,792.00
2023-03-07T06:40:03.555Z,791.00
2023-03-07T06:41:03.614Z,787.00
2023-03-07T06:42:03.671Z,789.00
2023-03-07T06:43:03.723Z,790.00
2023-03-07T06:44:03.789Z,790.00
2023-03-07T06:45:03.859Z,787.00
2023-03-07T06:46:03.997Z,785.00
2023-03-07T06:47:04.907Z,783.00
2023-03-07T06:48:03.902Z,778.00
2023-03-07T06:49:03.903Z,774.00
2023-03-07T06:50:03.981Z,773.00
2023-03-07T06:51:03.910Z,772.00
2023-03-07T06:52:03.910Z,769.00
2023-03-07T06:53:03.899Z,769.00
2023-03-07T06:54:03.886Z,768.00
2023-03-07T06:55:03.900Z,769.00
2023-03-07T06:56:03.966Z,767.00
2023-03-07T06:57:04.008Z,766.00
2023-03-07T06:58:04.062Z,765.00
2023-03-07T06:59:04.116Z,766.00
2023-03-07T07:00:04.165Z,764.00
2023-03-07T07:01:04.234Z,760.00
2023-03-07T07:02:04.369Z,761.00
2023-03-07T07:03:04.541Z,761.00
2023-03-07T07:04:04.398Z,760.00
2023-03-07T07:05:04.473Z,759.00
2023-03-07T07:06:04.525Z,756.00
2023-03-07T07:07:04.581Z,758.00
2023-03-07T07:08:04.637Z,757.00
2023-03-07T07:09:04.702Z,755.00
2023-03-07T07:10:04.764Z,752.00
2023-03-07T07:11:04.823Z,750.00
2023-03-07T07:12:04.886Z,751.00
2023-03-07T07:13:04.937Z,748.00
2023-03-07T07:14:04.992Z,747.00
2023-03-07T07:15:05.047Z,748.00
2023-03-07T07:16:05.141Z,749.00
2023-03-07T07:17:05.158Z,750.00
2023-03-07T07:18:05.222Z,749.00
2023-03-07T07:19:05.278Z,750.00
2023-03-07T07:20:05.338Z,754.00
2023-03-07T07:21:05.401Z,748.00
2023-03-07T07:22:05.446Z,748.00
2023-03-07T07:23:05.495Z,747.00
2023-03-07T07:24:05.553Z,746.00
2023-03-07T07:25:05.612Z,744.00
2023-03-07T07:26:05.678Z,746.00
2023-03-07T07:27:05.735Z,745.00
2023-03-07T07:28:05.799Z,747.00
2023-03-07T07:29:05.847Z,748.00
2023-03-07T07:31:05.982Z,745.00
2023-03-07T07:32:06.253Z,743.00
2023-03-07T07:33:06.180Z,739.00
2023-03-07T07:34:06.158Z,738.00
2023-03-07T07:35:06.234Z,736.00
2023-03-07T07:36:06.333Z,736.00
2023-03-07T07:37:06.349Z,734.00
2023-03-07T07:38:06.414Z,732.00
2023-03-07T07:39:06.505Z,730.00
2023-03-07T07:40:06.536Z,728.00
2023-03-07T07:41:06.609Z,728.00
2023-03-07T09:54:11.316Z,1645.00
2023-03-07T09:55:11.364Z,1662.00
2023-03-07T09:56:11.400Z,1683.00
2023-03-07T09:57:11.441Z,1731.00
2023-03-07T09:58:11.484Z,1755.00
2023-03-07T09:59:22.399Z,1805.00
2023-03-07T10:00:12.504Z,1836.00
2023-03-07T10:01:11.492Z,1851.00
2023-03-07T10:02:11.483Z,1883.00
2023-03-07T10:03:11.498Z,1919.00
2023-03-07T10:04:11.468Z,1969.00
2023-03-07T10:05:11.449Z,1987.00
2023-03-07T10:06:11.458Z,2001.00
2023-03-07T10:07:11.419Z,2008.00
2023-03-07T10:08:11.413Z,2040.00
2023-03-07T10:09:11.403Z,2076.00
2023-03-07T10:10:11.375Z,2095.00
2023-03-07T10:11:11.368Z,2108.00
2023-03-07T10:12:11.368Z,2139.00
2023-03-07T10:13:11.340Z,2164.00
2023-03-07T10:14:11.389Z,2181.00
2023-03-07T10:15:11.401Z,2189.00
2023-03-07T10:16:11.478Z,2200.00
2023-03-07T10:17:11.468Z,2307.00
2023-03-07T10:18:11.508Z,2275.00
2023-03-07T10:19:11.514Z,2283.00
2023-03-07T10:20:11.553Z,2238.00
2023-03-07T10:21:11.597Z,2265.00
2023-03-07T10:22:11.710Z,2321.00
2023-03-07T10:23:11.693Z,2335.00
2023-03-07T10:24:11.746Z,2365.00
2023-03-07T10:25:11.782Z,2410.00
2023-03-07T10:26:11.823Z,2444.00
2023-03-07T10:27:12.694Z,2468.00
2023-03-07T10:28:11.863Z,2516.00
2023-03-07T10:29:11.890Z,2539.00
2023-03-07T10:30:11.911Z,2561.00
2023-03-07T10:31:11.912Z,2582.00
2023-03-07T10:32:12.127Z,2592.00
2023-03-07T10:33:11.953Z,2678.00
2023-03-07T10:34:19.850Z,2750.00
2023-03-07T10:35:12.959Z,2742.00
2023-03-07T10:36:11.939Z,2760.00
2023-03-07T10:37:11.918Z,2788.00
2023-03-07T10:38:11.912Z,2805.00
2023-03-07T10:39:11.905Z,2824.00
2023-03-07T10:40:11.892Z,2904.00
2023-03-07T10:41:11.892Z,2892.00
2023-03-07T10:42:11.861Z,2891.00
2023-03-07T10:43:11.854Z,2892.00
2023-03-07T10:44:11.838Z,2890.00
2023-03-07T10:45:12.657Z,2883.00
2023-03-07T10:46:23.663Z,2874.00
2023-03-07T10:47:12.847Z,2877.00
2023-03-07T10:48:11.784Z,2872.00
2023-03-07T10:49:11.792Z,2867.00
2023-03-07T10:50:11.764Z,2851.00
2023-03-07T10:51:11.766Z,2822.00
2023-03-07T10:52:11.741Z,2814.00
2023-03-07T10:53:11.752Z,2812.00
2023-03-07T10:54:11.734Z,2810.00
2023-03-07T10:55:11.717Z,2796.00
2023-03-07T10:56:11.706Z,2753.00
2023-03-07T10:57:11.686Z,2740.00
2023-03-07T10:58:11.693Z,2741.00
2023-03-07T10:59:11.686Z,2739.00
2023-03-07T11:00:11.658Z,2736.00
2023-03-07T11:01:11.674Z,2732.00
2023-03-07T11:02:11.632Z,2735.00
2023-03-07T11:03:11.621Z,2738.00
2023-03-07T11:04:11.611Z,2733.00
2023-03-07T11:05:11.632Z,2726.00
2023-03-07T11:06:11.615Z,2721.00
2023-03-07T11:07:11.630Z,2713.00
2023-03-07T11:08:11.657Z,2713.00
2023-03-07T11:09:11.675Z,2712.00
2023-03-07T11:10:11.691Z,2332.00
2023-03-07T11:11:11.725Z,2287.00
2023-03-07T11:12:11.765Z,2465.00
2023-03-07T11:13:11.801Z,2481.00
2023-03-07T11:14:14.501Z,2483.00
2023-03-07T11:15:11.831Z,2460.00
2023-03-07T11:16:12.103Z,2452.00
2023-03-07T11:17:11.798Z,2443.00
2023-03-07T11:18:11.787Z,2419.00
2023-03-07T11:19:11.765Z,2412.00
2023-03-07T11:20:11.739Z,2407.00
2023-03-07T11:21:11.724Z,2397.00
2023-03-07T11:22:11.712Z,2387.00
2023-03-07T11:23:11.690Z,2384.00
2023-03-07T11:24:11.728Z,2380.00
2023-03-07T11:25:11.653Z,2371.00
2023-03-07T11:26:11.656Z,2366.00
2023-03-07T11:27:11.638Z,2367.00
2023-03-07T11:28:11.618Z,2365.00
2023-03-07T11:29:11.626Z,2356.00
2023-03-07T11:30:11.613Z,2350.00
2023-03-07T11:31:11.631Z,2350.00
2023-03-07T11:32:11.626Z,2351.00
2023-03-07T11:33:12.583Z,2354.00
2023-03-07T11:34:11.595Z,2354.00
2023-03-07T11:35:11.574Z,2356.00
2023-03-07T11:36:11.551Z,2351.00
2023-03-07T11:37:11.539Z,2342.00
2023-03-07T11:38:11.535Z,2344.00
2023-03-07T11:39:11.528Z,2341.00
2023-03-07T11:40:11.517Z,2333.00
2023-03-07T11:41:11.518Z,2330.00
2023-03-07T11:42:11.484Z,2328.00
2023-03-07T11:43:11.530Z,2323.00
2023-03-07T11:44:11.586Z,2315.00
2023-03-07T11:45:11.635Z,2304.00
2023-03-07T11:46:11.740Z,2291.00
2023-03-07T11:47:11.752Z,2279.00
2023-03-07T11:48:11.821Z,2273.00
2023-03-07T11:49:11.889Z,2269.00
2023-03-07T11:50:11.938Z,2266.00
2023-03-07T11:51:11.993Z,2253.00
2023-03-07T11:52:12.048Z,2241.00
2023-03-07T11:53:12.107Z,2231.00
2023-03-07T11:54:12.160Z,2214.00
2023-03-07T11:55:12.211Z,2204.00
2023-03-07T11:56:13.232Z,2199.00
2023-03-07T11:57:12.327Z,2192.00
2023-03-07T11:58:12.364Z,2191.00
2023-03-07T11:59:12.474Z,2185.00
2023-03-07T12:00:12.474Z,2179.00
2023-03-07T12:01:12.534Z,2179.00
2023-03-07T12:02:12.568Z,2171.00
2023-03-07T12:03:12.634Z,2165.00
2023-03-07T12:04:12.698Z,2164.00
2023-03-07T12:05:12.708Z,2167.00
2023-03-07T12:06:12.757Z,2162.00
2023-03-07T12:07:12.837Z,2146.00
2023-03-07T12:08:12.870Z,2145.00
2023-03-07T12:09:12.983Z,2151.00
2023-03-07T12:10:12.973Z,2150.00
2023-03-07T12:11:13.252Z,2147.00
2023-03-07T12:12:13.103Z,2145.00
2023-03-07T12:13:13.118Z,2141.00
2023-03-07T12:14:13.176Z,2135.00
2023-03-07T12:15:13.237Z,2126.00
2023-03-07T12:16:13.329Z,2124.00
2023-03-07T12:17:13.340Z,2121.00
2023-03-07T12:18:15.118Z,2115.00
2023-03-07T12:19:13.444Z,2105.00
2023-03-07T12:20:13.608Z,2100.00
2023-03-07T12:21:13.587Z,2103.00
2023-03-07T12:22:13.604Z,2099.00
2023-03-07T12:23:13.685Z,2095.00
2023-03-07T12:24:13.721Z,2085.00
2023-03-07T12:25:13.780Z,2082.00
2023-03-07T12:26:13.821Z,2084.00
2023-03-07T12:27:13.881Z,2079.00
2023-03-07T12:28:13.925Z,2078.00
2023-03-07T12:29:13.978Z,2080.00
2023-03-07T12:30:14.099Z,2081.00
2023-03-07T12:31:14.097Z,2077.00
2023-03-07T12:32:14.308Z,2073.00
2023-03-07T12:33:14.230Z,2068.00
2023-03-07T12:34:14.183Z,2066.00
2023-03-07T12:35:14.260Z,2063.00
2023-03-07T12:36:14.422Z,2062.00
2023-03-07T12:37:14.343Z,1989.00
2023-03-07T12:38:14.400Z,1826.00
2023-03-07T12:39:14.447Z,1837.00
2023-03-07T12:40:14.488Z,1687.00
2023-03-07T12:41:14.470Z,1724.00
2023-03-07T12:42:14.460Z,1783.00
2023-03-07T12:43:14.518Z,1738.00
2023-03-07T12:44:14.456Z,1707.00
2023-03-07T12:45:14.496Z,1760.00
2023-03-07T12:46:14.475Z,1818.00
2023-03-07T12:47:14.458Z,1831.00
2023-03-07T12:48:14.452Z,1824.00
2023-03-07T12:49:14.547Z,1820.00
2023-03-07T12:50:14.510Z,1810.00
2023-03-07T12:51:14.468Z,1802.00
2023-03-07T12:52:14.477Z,1789.00
2023-03-07T12:53:14.476Z,1767.00
2023-03-07T12:54:14.483Z,1745.00
2023-03-07T12:55:14.499Z,1736.00
2023-03-07T12:56:14.482Z,1728.00
2023-03-07T12:57:14.574Z,1720.00
2023-03-07T12:58:14.512Z,1711.00
2023-03-07T12:59:14.513Z,1703.00
2023-03-07T13:00:14.520Z,1699.00
2023-03-07T13:01:14.611Z,1696.00
2023-03-07T13:02:14.515Z,1692.00
2023-03-07T13:03:14.566Z,1690.00
2023-03-07T13:04:14.591Z,1688.00
2023-03-07T13:05:14.536Z,1685.00
2023-03-07T13:06:14.541Z,1683.00
2023-03-07T13:07:14.556Z,1682.00
2023-03-07T13:08:14.537Z,1682.00
2023-03-07T13:09:14.529Z,1682.00
2023-03-07T13:10:14.549Z,1680.00
2023-03-07T13:11:14.558Z,1680.00
2023-03-07T13:12:14.542Z,1675.00
2023-03-07T13:13:15.194Z,1671.00
2023-03-07T13:14:14.552Z,1664.00
2023-03-07T13:15:14.554Z,1664.00
2023-03-07T13:16:14.566Z,1663.00
2023-03-07T13:50:15.618Z,1612.00
2023-03-07T13:51:15.675Z,1600.00
2023-03-07T13:52:15.724Z,1599.00
2023-03-07T13:53:15.798Z,1600.00
2023-03-07T13:54:15.827Z,1594.00
2023-03-07T13:55:15.883Z,1592.00
2023-03-07T13:56:15.944Z,1591.00
2023-03-07T13:57:15.989Z,1584.00
2023-03-07T13:58:16.044Z,1579.00
2023-03-07T14:54:19.112Z,1485.00
2023-03-07T14:55:19.181Z,1487.00
2023-03-07T14:56:19.217Z,1490.00
2023-03-07T14:57:19.288Z,1492.00
2023-03-07T14:58:19.344Z,1493.00
2023-03-07T14:59:28.318Z,1490.00
2023-03-07T15:00:20.389Z,1492.00
2023-03-07T15:01:19.384Z,1489.00
2023-03-07T15:02:19.383Z,1487.00
2023-03-07T15:03:19.384Z,1484.00
2023-03-07T15:04:19.426Z,1474.00
2023-03-07T15:05:19.368Z,1479.00
2023-03-07T15:51:21.288Z,1633.00
2023-03-07T15:53:21.320Z,1639.00
2023-03-07T15:54:21.374Z,1640.00
2023-03-07T15:55:21.409Z,1639.00
2023-03-07T15:56:21.461Z,1636.00
2023-03-07T15:57:21.505Z,1631.00
2023-03-07T15:58:21.555Z,1624.00
2023-03-07T15:59:21.588Z,1621.00
2023-03-07T16:00:21.635Z,1616.00
2023-03-07T16:01:21.680Z,1621.00
2023-03-07T16:02:21.731Z,1624.00
2023-03-07T16:03:21.920Z,1624.00
2023-03-07T16:04:21.835Z,1627.00
2023-03-07T16:05:21.882Z,1626.00
2023-03-07T16:06:21.938Z,1621.00
2023-03-07T16:07:21.998Z,1615.00
2023-03-07T16:08:22.057Z,1612.00
2023-03-07T16:09:22.120Z,1608.00
2023-03-07T16:10:22.170Z,1607.00
2023-03-07T16:11:22.747Z,1606.00
2023-03-07T16:12:22.285Z,1597.00
2023-03-07T16:13:22.360Z,1592.00
2023-03-07T16:14:22.422Z,1592.00
2023-03-07T16:15:22.469Z,1594.00
2023-03-07T16:19:22.716Z,1598.00
2023-03-07T21:29:31.348Z,1203.00
2023-03-07T21:30:31.397Z,1198.00
2023-03-07T21:31:31.496Z,1195.00
2023-03-07T21:32:31.543Z,1195.00
2023-03-07T21:33:31.537Z,1193.00
2023-03-07T21:34:31.581Z,1193.00
2023-03-07T21:35:31.638Z,1191.00
2023-03-07T21:36:31.689Z,1190.00
2023-03-07T21:37:31.724Z,1190.00
2023-03-07T21:38:31.779Z,1191.00
2023-03-07T21:39:31.846Z,1185.00
2023-03-07T21:40:31.878Z,1182.00
2023-03-07T21:41:31.940Z,1182.00
2023-03-07T21:42:31.978Z,1184.00
2023-03-07T21:43:32.037Z,1182.00
2023-03-07T21:44:32.073Z,1184.00
2023-03-07T21:45:32.233Z,1184.00
2023-03-07T21:46:32.181Z,1185.00
2023-03-07T21:47:32.225Z,1183.00
2023-03-07T21:48:32.269Z,1182.00
2023-03-07T21:49:32.323Z,1180.00
2023-03-07T21:50:32.440Z,1179.00
2023-03-07T21:51:32.430Z,1180.00
2023-03-07T21:52:32.486Z,1178.00
2023-03-07T21:53:32.528Z,1175.00
2023-03-07T21:54:32.572Z,1176.00
2023-03-07T21:55:32.637Z,1178.00
2023-03-07T21:56:32.694Z,1177.00
2023-03-07T21:57:32.740Z,1176.00
2023-03-07T21:58:32.793Z,1177.00
2023-03-07T21:59:32.845Z,1175.00
2023-03-07T22:00:32.885Z,1173.00
2023-03-07T22:01:32.985Z,1169.00
2023-03-07T22:02:33.003Z,1170.00
2023-03-07T22:03:33.050Z,1164.00
2023-03-07T22:04:33.223Z,1162.00
2023-03-07T22:05:33.153Z,1161.00
2023-03-07T22:06:33.204Z,1160.00
2023-03-07T22:07:33.249Z,1160.00
2023-03-07T22:08:33.309Z,1159.00
2023-03-07T22:09:33.361Z,1161.00
2023-03-07T22:10:33.421Z,1165.00
2023-03-07T22:11:33.462Z,1162.00
2023-03-07T22:12:33.517Z,1160.00
2023-03-07T22:13:33.562Z,1159.00
2023-03-07T22:14:33.608Z,1157.00
2023-03-07T22:15:33.692Z,1157.00
2023-03-07T22:16:33.744Z,1158.00
2023-03-07T22:17:33.751Z,1154.00
2023-03-07T22:18:33.855Z,1157.00
2023-03-07T22:19:33.860Z,1160.00
2023-03-07T22:20:33.917Z,1157.00
2023-03-07T22:21:33.970Z,1160.00
2023-03-07T22:22:34.024Z,1162.00
2023-03-07T22:23:34.070Z,1159.00
2023-03-07T22:24:34.137Z,1156.00
2023-03-07T22:25:34.162Z,1157.00
2023-03-07T22:26:34.208Z,1155.00
2023-03-07T22:27:34.258Z,1153.00
2023-03-07T22:28:34.324Z,1152.00
2023-03-07T22:29:34.365Z,1151.00
2023-03-07T22:30:34.418Z,1147.00
2023-03-07T22:31:34.522Z,1145.00
2023-03-07T22:32:34.629Z,1144.00
2023-03-07T22:33:34.577Z,1141.00
2023-03-07T22:35:34.729Z,1140.00
2023-03-07T22:36:34.728Z,1142.00
2023-03-07T22:37:34.778Z,1137.00
